createdAt,value
2023-05-03T00:00:47.628Z,79.92
2023-05-03T00:03:53.771Z,79.87
2023-05-03T00:06:56.696Z,79.73
2023-05-03T00:09:59.565Z,79.97
2023-05-03T00:13:02.688Z,80.28
2023-05-03T00:16:05.991Z,80.31
2023-05-03T00:19:17.688Z,80.79
2023-05-03T00:22:27.574Z,80.73
2023-05-03T00:25:30.329Z,80.53
2023-05-03T00:28:33.037Z,80.87
2023-05-03T00:31:36.123Z,80.71
2023-05-03T00:34:40.306Z,80.81
2023-05-03T00:37:43.023Z,81.19
2023-05-03T00:40:46.281Z,81.57
2023-05-03T00:43:48.942Z,81.58
2023-05-03T00:46:52.753Z,81.65
2023-05-03T00:49:57.256Z,81.81
2023-05-03T00:53:00.039Z,81.60
2023-05-03T00:56:03.660Z,81.52
2023-05-03T00:59:07.273Z,81.51
2023-05-03T01:02:10.068Z,81.44
2023-05-03T01:05:14.304Z,81.64
2023-05-03T01:08:26.661Z,81.44
2023-05-03T01:11:38.942Z,81.51
2023-05-03T01:14:51.041Z,81.73
2023-05-03T01:18:03.066Z,81.67
2023-05-03T01:21:09.252Z,81.15
2023-05-03T01:24:18.975Z,81.36
2023-05-03T01:27:23.029Z,81.40
2023-05-03T01:30:29.052Z,81.06
2023-05-03T01:33:41.457Z,81.30
2023-05-03T01:36:46.190Z,81.30
2023-05-03T01:39:55.340Z,81.20
2023-05-03T01:43:00.783Z,81.21
2023-05-03T01:46:03.833Z,81.50
2023-05-03T01:49:06.589Z,81.10
2023-05-03T01:52:09.455Z,81.38
2023-05-03T01:55:12.304Z,81.08
2023-05-03T01:58:16.413Z,81.41
2023-05-03T02:01:19.899Z,81.15
2023-05-03T02:04:22.732Z,81.34
2023-05-03T02:07:26.777Z,81.21
2023-05-03T02:10:29.447Z,81.27
2023-05-03T02:13:39.964Z,81.49
2023-05-03T02:16:43.146Z,81.83
2023-05-03T02:19:45.874Z,82.23
2023-05-03T02:22:48.616Z,82.13
2023-05-03T02:25:51.423Z,82.85
2023-05-03T02:28:55.954Z,82.78
2023-05-03T02:31:58.632Z,83.02
2023-05-03T02:35:01.765Z,83.30
2023-05-03T02:38:04.484Z,83.34
2023-05-03T02:41:07.439Z,83.57
2023-05-03T02:44:11.781Z,83.79
2023-05-03T02:47:14.643Z,83.93
2023-05-03T02:50:17.424Z,83.88
2023-05-03T02:53:20.102Z,83.96
2023-05-03T02:56:22.797Z,84.20
2023-05-03T02:59:26.828Z,84.21
2023-05-03T03:02:30.332Z,84.41
2023-05-03T03:05:33.170Z,84.32
2023-05-03T03:08:37.462Z,84.18
2023-05-03T03:11:40.156Z,84.10
2023-05-03T03:14:45.817Z,84.28
2023-05-03T03:17:48.574Z,84.68
2023-05-03T03:20:53.621Z,84.90
2023-05-03T03:23:56.480Z,85.06
2023-05-03T03:26:59.206Z,85.06
2023-05-03T03:30:03.515Z,85.08
2023-05-03T03:33:09.402Z,85.24
2023-05-03T03:36:12.161Z,85.36
2023-05-03T03:39:14.882Z,85.69
2023-05-03T03:42:19.126Z,85.68
2023-05-03T03:45:23.870Z,85.56
2023-05-03T03:48:26.609Z,85.92
2023-05-03T03:51:29.410Z,85.65
2023-05-03T03:54:32.249Z,85.61
2023-05-03T03:57:34.952Z,85.78
2023-05-03T04:00:39.451Z,85.98
2023-05-03T04:03:47.525Z,85.81
2023-05-03T04:06:50.473Z,85.87
2023-05-03T04:09:53.218Z,85.76
2023-05-03T04:12:56.022Z,85.95
2023-05-03T04:16:02.143Z,85.75
2023-05-03T04:19:05.987Z,86.06
2023-05-03T04:22:08.618Z,85.87
2023-05-03T04:25:14.060Z,85.80
2023-05-03T04:28:16.820Z,85.62
2023-05-03T04:31:22.141Z,85.82
2023-05-03T04:34:30.238Z,85.68
2023-05-03T04:37:35.318Z,85.34
2023-05-03T04:40:38.362Z,85.32
2023-05-03T04:43:41.032Z,85.23
2023-05-03T04:46:45.151Z,85.18
2023-05-03T04:49:47.904Z,84.81
2023-05-03T04:52:50.689Z,84.43
2023-05-03T04:55:53.391Z,84.63
2023-05-03T04:58:56.150Z,84.36
2023-05-03T05:02:00.398Z,84.33
2023-05-03T05:05:06.286Z,84.18
2023-05-03T05:08:11.790Z,84.13
2023-05-03T05:11:15.697Z,83.87
2023-05-03T05:14:18.483Z,83.69
2023-05-03T05:17:22.620Z,83.42
2023-05-03T05:20:25.326Z,82.84
2023-05-03T05:23:28.027Z,82.25
2023-05-03T05:26:31.019Z,82.03
2023-05-03T05:29:34.460Z,81.86
2023-05-03T05:32:38.644Z,81.99
2023-05-03T05:35:41.447Z,82.14
2023-05-03T05:38:44.214Z,82.38
2023-05-03T05:41:46.969Z,82.47
2023-05-03T05:44:49.651Z,81.96
2023-05-03T05:47:53.736Z,79.48
2023-05-03T05:50:58.685Z,76.08
2023-05-03T05:54:01.388Z,73.42
2023-05-03T05:57:04.110Z,71.17
2023-05-03T06:00:14.804Z,69.32
2023-05-03T06:03:19.468Z,67.45
2023-05-03T06:06:22.545Z,65.93
2023-05-03T06:09:25.407Z,64.43
2023-05-03T06:12:28.435Z,62.86
2023-05-03T06:15:31.574Z,60.42
2023-05-03T06:18:35.641Z,59.47
2023-05-03T06:21:38.337Z,57.52
2023-05-03T06:24:41.181Z,55.59
2023-05-03T06:27:43.988Z,54.70
2023-05-03T06:30:50.439Z,54.38
2023-05-03T06:33:54.585Z,52.37
2023-05-03T06:36:57.541Z,51.17
2023-05-03T06:40:00.531Z,51.03
2023-05-03T06:43:03.703Z,50.09
2023-05-03T06:46:08.891Z,50.34
2023-05-03T06:49:13.021Z,49.69
2023-05-03T06:52:16.358Z,48.76
2023-05-03T06:55:19.980Z,48.93
2023-05-03T06:58:22.693Z,49.11
2023-05-03T07:01:25.460Z,49.41
2023-05-03T07:04:30.394Z,48.44
2023-05-03T07:07:34.271Z,46.82
2023-05-03T07:10:37.006Z,47.48
2023-05-03T07:13:39.923Z,46.98
2023-05-03T07:16:45.566Z,46.28
2023-05-03T07:19:50.869Z,46.36
2023-05-03T07:22:55.755Z,46.27
2023-05-03T07:25:59.392Z,46.08
2023-05-03T07:29:02.107Z,45.47
2023-05-03T07:32:05.657Z,44.98
2023-05-03T07:35:10.928Z,44.47
2023-05-03T07:38:16.819Z,44.16
2023-05-03T07:41:19.743Z,44.13
2023-05-03T07:44:22.438Z,44.02
2023-05-03T07:47:25.242Z,44.39
2023-05-03T07:50:29.299Z,44.97
2023-05-03T07:53:32.009Z,45.18
2023-05-03T07:56:34.789Z,45.42
2023-05-03T07:59:38.725Z,45.34
2023-05-03T08:02:41.979Z,45.69
2023-05-03T08:05:48.227Z,45.79
2023-05-03T08:08:51.113Z,46.08
2023-05-03T08:11:53.843Z,46.03
2023-05-03T08:14:57.353Z,45.94
2023-05-03T08:18:02.306Z,47.59
2023-05-03T08:21:08.028Z,48.21
2023-05-03T08:24:10.834Z,48.83
2023-05-03T08:27:13.554Z,50.21
2023-05-03T08:30:16.717Z,50.23
2023-05-03T08:33:19.381Z,51.21
2023-05-03T08:36:23.539Z,51.68
2023-05-03T08:39:27.101Z,51.13
2023-05-03T08:42:31.988Z,51.77
2023-05-03T08:45:34.667Z,52.05
2023-05-03T08:48:37.361Z,52.21
2023-05-03T08:51:42.369Z,52.39
2023-05-03T08:54:46.687Z,51.69
2023-05-03T08:57:52.115Z,52.64
2023-05-03T09:00:54.905Z,51.68
2023-05-03T09:03:57.778Z,51.80
2023-05-03T09:07:10.430Z,52.35
2023-05-03T09:10:24.132Z,52.30
2023-05-03T09:13:32.071Z,52.20
2023-05-03T09:16:35.005Z,52.10
2023-05-03T09:19:51.136Z,51.53
2023-05-03T09:22:55.269Z,51.07
2023-05-03T09:25:59.168Z,51.37
2023-05-03T09:29:03.628Z,51.16
2023-05-03T09:32:08.457Z,50.95
2023-05-03T09:35:11.346Z,51.09
2023-05-03T09:38:27.820Z,49.52
2023-05-03T09:41:34.104Z,49.42
2023-05-03T09:44:51.460Z,49.89
2023-05-03T09:47:55.833Z,50.49
2023-05-03T09:50:59.050Z,50.29
2023-05-03T09:54:04.532Z,50.40
2023-05-03T09:57:08.854Z,49.94
2023-05-03T10:00:13.804Z,49.55
2023-05-03T10:03:24.682Z,49.06
2023-05-03T10:06:33.034Z,48.99
2023-05-03T10:09:40.958Z,48.56
2023-05-03T10:12:48.850Z,47.30
2023-05-03T10:15:57.208Z,47.53
2023-05-03T10:19:08.298Z,47.33
2023-05-03T10:22:12.355Z,48.00
2023-05-03T10:25:16.809Z,46.91
2023-05-03T10:28:19.570Z,47.23
2023-05-03T10:31:46.242Z,46.95
2023-05-03T10:34:49.077Z,46.02
2023-05-03T10:37:52.844Z,46.44
2023-05-03T10:40:59.115Z,46.45
2023-05-03T10:44:02.302Z,46.95
2023-05-03T10:47:13.818Z,47.44
2023-05-03T10:50:27.335Z,46.96
2023-05-03T10:53:41.180Z,45.98
2023-05-03T10:56:57.208Z,46.11
2023-05-03T11:00:03.137Z,45.86
2023-05-03T11:03:14.221Z,45.21
2023-05-03T11:06:31.657Z,45.51
2023-05-03T11:09:35.447Z,45.93
2023-05-03T11:12:39.498Z,45.45
2023-05-03T11:15:43.381Z,45.37
2023-05-03T11:18:46.688Z,45.52
2023-05-03T11:21:49.521Z,45.20
2023-05-03T11:24:52.359Z,45.23
2023-05-03T11:27:56.462Z,44.27
2023-05-03T11:30:59.237Z,44.14
2023-05-03T11:34:02.278Z,44.01
2023-05-03T11:37:05.292Z,43.90
2023-05-03T11:40:15.531Z,43.29
2023-05-03T11:43:19.614Z,43.42
2023-05-03T11:46:26.486Z,43.10
2023-05-03T11:49:29.423Z,43.34
2023-05-03T11:52:32.150Z,42.92
2023-05-03T11:55:34.926Z,42.38
2023-05-03T11:58:51.298Z,41.68
2023-05-03T12:01:55.744Z,41.66
2023-05-03T12:04:58.671Z,41.63
2023-05-03T12:08:02.817Z,41.29
2023-05-03T12:11:09.524Z,40.73
2023-05-03T12:14:15.591Z,40.35
2023-05-03T12:17:38.774Z,39.94
2023-05-03T12:21:29.274Z,39.87
2023-05-03T12:24:06.656Z,39.15
2023-05-03T12:27:09.588Z,39.69
2023-05-03T12:33:21.895Z,38.93
2023-05-03T12:36:26.560Z,38.51
2023-05-03T12:39:31.653Z,38.58
2023-05-03T12:42:35.639Z,38.44
2023-05-03T12:45:40.796Z,37.56
2023-05-03T12:48:46.517Z,37.78
2023-05-03T12:52:04.855Z,37.19
2023-05-03T12:55:17.818Z,37.36
2023-05-03T13:04:57.214Z,35.04
2023-05-03T13:07:59.191Z,36.15
2023-05-03T13:11:02.824Z,35.95
2023-05-03T13:14:05.886Z,35.79
2023-05-03T13:17:10.343Z,36.54
2023-05-03T13:20:14.373Z,36.66
2023-05-03T13:23:17.016Z,35.85
2023-05-03T13:26:19.872Z,35.77
2023-05-03T13:29:24.152Z,35.91
2023-05-03T13:32:28.402Z,32.14
2023-05-03T13:35:31.888Z,31.62
2023-05-03T13:38:34.787Z,31.15
2023-05-03T13:41:38.762Z,33.77
2023-05-03T13:44:42.540Z,35.10
2023-05-03T13:48:13.965Z,35.45
2023-05-03T13:51:10.427Z,35.03
2023-05-03T13:54:13.187Z,32.96
2023-05-03T13:57:16.018Z,33.69
2023-05-03T14:00:20.753Z,34.85
2023-05-03T14:03:25.049Z,32.74
2023-05-03T14:06:29.299Z,33.66
2023-05-03T14:09:33.146Z,34.59
2023-05-03T14:12:37.151Z,34.66
2023-05-03T14:15:40.730Z,34.69
2023-05-03T14:18:45.206Z,33.88
2023-05-03T14:21:49.809Z,33.54
2023-05-03T14:24:52.725Z,33.90
2023-05-03T14:27:55.555Z,32.86
2023-05-03T14:30:58.379Z,33.59
2023-05-03T14:34:02.521Z,33.62
2023-05-03T14:37:05.275Z,34.26
2023-05-03T14:40:09.304Z,34.31
2023-05-03T14:43:12.028Z,34.13
2023-05-03T14:46:14.915Z,33.46
2023-05-03T14:49:19.226Z,33.64
2023-05-03T14:52:21.950Z,33.86
2023-05-03T14:55:24.730Z,33.61
2023-05-03T14:58:27.641Z,33.69
2023-05-03T15:01:30.463Z,34.10
2023-05-03T15:04:37.013Z,34.16
2023-05-03T15:07:39.906Z,33.82
2023-05-03T15:10:44.412Z,33.55
2023-05-03T15:13:47.204Z,33.51
2023-05-03T15:16:50.036Z,33.69
2023-05-03T15:19:54.041Z,33.32
2023-05-03T15:22:56.927Z,32.54
2023-05-03T15:25:59.586Z,32.37
2023-05-03T15:29:02.354Z,32.40
2023-05-03T15:32:05.565Z,32.25
2023-05-03T15:35:10.345Z,31.95
2023-05-03T15:38:13.120Z,31.04
2023-05-03T15:41:15.827Z,31.64
2023-05-03T15:44:18.488Z,31.43
2023-05-03T15:47:22.606Z,31.07
2023-05-03T15:50:26.637Z,31.55
2023-05-03T15:53:29.319Z,31.57
2023-05-03T15:56:32.320Z,30.88
2023-05-03T15:59:35.113Z,31.94
2023-05-03T16:02:38.432Z,32.04
2023-05-03T16:05:42.516Z,31.90
2023-05-03T16:08:45.389Z,31.91
2023-05-03T16:11:48.899Z,31.38
2023-05-03T16:14:52.854Z,31.99
2023-05-03T16:17:55.725Z,31.92
2023-05-03T16:21:02.939Z,31.71
2023-05-03T16:24:06.532Z,31.68
2023-05-03T16:27:11.571Z,31.49
2023-05-03T16:30:15.179Z,31.43
2023-05-03T16:33:18.341Z,31.63
2023-05-03T16:36:24.991Z,31.86
2023-05-03T16:39:28.398Z,31.87
2023-05-03T16:42:32.242Z,31.70
2023-05-03T16:45:35.084Z,31.44
2023-05-03T16:48:37.792Z,31.58
2023-05-03T16:51:41.889Z,31.76
2023-05-03T16:54:44.632Z,31.72
2023-05-03T16:57:50.022Z,31.16
2023-05-03T17:00:53.478Z,31.69
2023-05-03T17:03:56.426Z,31.58
2023-05-03T17:07:04.715Z,31.85
2023-05-03T17:10:08.736Z,31.82
2023-05-03T17:13:11.721Z,31.34
2023-05-03T17:16:15.870Z,31.63
2023-05-03T17:19:19.521Z,31.79
2023-05-03T17:22:23.635Z,31.56
2023-05-03T17:25:26.468Z,30.91
2023-05-03T17:28:29.221Z,30.69
2023-05-03T17:31:32.075Z,30.75
2023-05-03T17:34:34.914Z,30.54
2023-05-03T17:37:39.100Z,29.98
2023-05-03T17:40:43.272Z,29.45
2023-05-03T17:43:46.259Z,29.98
2023-05-03T17:46:49.069Z,29.82
2023-05-03T17:49:51.983Z,30.20
2023-05-03T17:52:58.904Z,30.65
2023-05-03T17:56:01.695Z,31.35
2023-05-03T17:59:04.386Z,31.64
2023-05-03T18:02:07.561Z,31.39
2023-05-03T18:05:11.018Z,30.93
2023-05-03T18:08:15.082Z,31.69
2023-05-03T18:11:17.757Z,32.49
2023-05-03T18:14:22.766Z,33.89
2023-05-03T18:17:25.774Z,34.98
2023-05-03T18:20:28.730Z,35.88
2023-05-03T18:23:33.679Z,36.02
2023-05-03T18:26:36.486Z,36.02
2023-05-03T18:29:39.232Z,36.51
2023-05-03T18:32:42.264Z,36.28
2023-05-03T18:35:48.391Z,36.75
2023-05-03T18:38:53.767Z,36.99
2023-05-03T18:41:57.060Z,36.99
2023-05-03T18:44:59.783Z,38.65
2023-05-03T18:48:02.484Z,40.16
2023-05-03T18:51:05.633Z,41.18
2023-05-03T18:54:10.410Z,42.14
2023-05-03T18:57:13.551Z,42.66
2023-05-03T19:00:18.461Z,42.61
2023-05-03T19:03:21.190Z,42.76
2023-05-03T19:06:24.261Z,42.83
2023-05-03T19:09:28.458Z,42.75
2023-05-03T19:12:31.483Z,42.90
2023-05-03T19:15:34.384Z,42.77
2023-05-03T19:18:39.971Z,43.35
2023-05-03T19:21:43.821Z,43.90
2023-05-03T19:24:48.017Z,44.91
2023-05-03T19:27:50.861Z,45.55
2023-05-03T19:30:54.300Z,46.82
2023-05-03T19:33:57.141Z,47.51
2023-05-03T19:36:59.822Z,47.61
2023-05-03T19:40:04.878Z,47.42
2023-05-03T19:43:08.323Z,47.29
2023-05-03T19:46:11.124Z,47.15
2023-05-03T19:49:13.946Z,47.38
2023-05-03T19:52:16.689Z,47.55
2023-05-03T19:55:20.905Z,47.58
2023-05-03T19:58:23.642Z,48.23
2023-05-03T20:01:26.786Z,48.40
2023-05-03T20:04:29.615Z,48.64
2023-05-03T20:07:32.565Z,51.21
2023-05-03T20:10:37.171Z,53.61
2023-05-03T20:13:39.909Z,55.86
2023-05-03T20:16:43.289Z,56.56
2023-05-03T20:19:46.493Z,57.85
2023-05-03T20:22:49.702Z,57.37
2023-05-03T20:25:54.087Z,57.75
2023-05-03T20:28:57.277Z,57.87
2023-05-03T20:32:00.332Z,57.96
2023-05-03T20:35:04.858Z,58.85
2023-05-03T20:38:07.668Z,58.81
2023-05-03T20:41:11.763Z,58.21
2023-05-03T20:44:14.813Z,57.47
2023-05-03T20:47:17.593Z,56.89
2023-05-03T20:50:20.881Z,56.57
2023-05-03T20:53:23.647Z,56.47
2023-05-03T20:56:27.770Z,56.11
2023-05-03T20:59:30.832Z,56.45
2023-05-03T21:02:33.600Z,56.38
2023-05-03T21:05:36.606Z,56.77
2023-05-03T21:08:39.333Z,56.95
2023-05-03T21:11:43.379Z,57.57
2023-05-03T21:14:46.322Z,57.69
2023-05-03T21:17:49.027Z,57.62
2023-05-03T21:20:54.448Z,57.92
2023-05-03T21:23:57.248Z,57.70
2023-05-03T21:27:02.693Z,58.58
2023-05-03T21:30:06.401Z,61.23
2023-05-03T21:33:09.391Z,62.83
2023-05-03T21:36:12.577Z,63.22
2023-05-03T21:39:15.353Z,63.24
2023-05-03T21:42:19.453Z,62.91
2023-05-03T21:45:23.239Z,63.07
2023-05-03T21:48:26.420Z,62.69
2023-05-03T21:51:29.137Z,62.49
2023-05-03T21:54:31.888Z,62.86
2023-05-03T21:57:36.761Z,62.67
2023-05-03T22:00:40.467Z,62.60
2023-05-03T22:03:43.322Z,62.71
2023-05-03T22:06:47.063Z,62.77
2023-05-03T22:09:49.844Z,62.84
2023-05-03T22:12:54.035Z,62.95
2023-05-03T22:15:56.831Z,62.87
2023-05-03T22:18:59.542Z,62.98
2023-05-03T22:22:02.507Z,63.67
2023-05-03T22:25:06.739Z,63.41
2023-05-03T22:28:10.877Z,63.83
2023-05-03T22:31:13.710Z,64.03
2023-05-03T22:34:16.909Z,64.41
2023-05-03T22:37:19.653Z,64.41
2023-05-03T22:40:22.500Z,65.25
2023-05-03T22:43:26.821Z,65.46
2023-05-03T22:46:29.536Z,66.10
2023-05-03T22:49:32.246Z,66.83
2023-05-03T22:52:35.114Z,68.84
2023-05-03T22:55:37.970Z,70.00
2023-05-03T22:58:42.127Z,71.75
2023-05-03T23:01:46.418Z,71.92
2023-05-03T23:04:49.177Z,73.06
2023-05-03T23:07:52.347Z,73.89
2023-05-03T23:10:57.464Z,74.42
2023-05-03T23:14:01.547Z,74.32
2023-05-03T23:17:04.543Z,73.71
2023-05-03T23:20:09.991Z,73.49
2023-05-03T23:23:12.794Z,73.11
2023-05-03T23:26:15.560Z,73.40
2023-05-03T23:29:20.122Z,73.22
2023-05-03T23:32:23.376Z,73.11
2023-05-03T23:35:26.842Z,72.65
2023-05-03T23:38:29.603Z,72.25
2023-05-03T23:41:33.994Z,71.94
2023-05-03T23:44:50.895Z,71.61
2023-05-03T23:47:56.349Z,71.38
2023-05-03T23:50:59.106Z,70.94
2023-05-03T23:54:02.346Z,70.95
2023-05-03T23:57:05.090Z,70.73
